Time;durP1;ratioP1;P1;durP2;ratioP2;P2;SDS_P1;SDS_P2;PMS_P1;PMS_P2;Temp;Humidity;BMP_temperature;BMP_pressure;BME280_temperature;BME280_humidity;BME280_pressure;Samples;Min_cycle;Max_cycle;Signal;HPM_P1;HPM_P2
2021/05/15 00:02:01;;;;;;;6.10;2.55;;;281.90;2278.40;;;;;;5035743;28;20462;-67
2021/05/15 00:04:27;;;;;;;4.18;2.42;;;281.70;2278.40;;;;;;5035450;28;20037;-67
2021/05/15 00:06:53;;;;;;;5.65;2.53;;;281.70;2278.40;;;;;;5035687;28;20484;-67
2021/05/15 00:09:19;;;;;;;5.40;2.60;;;281.70;2278.40;;;;;;5031643;28;20108;-67
2021/05/15 00:11:45;;;;;;;6.90;2.63;;;281.70;2278.40;;;;;;5035500;28;20049;-67
2021/05/15 00:14:10;;;;;;;5.95;3.00;;;281.70;2278.40;;;;;;5035307;28;20025;-67
2021/05/15 00:16:36;;;;;;;6.80;2.75;;;281.70;2278.40;;;;;;5035349;28;20036;-68
2021/05/15 00:19:02;;;;;;;5.43;2.63;;;281.70;2278.40;;;;;;5035414;28;20053;-68
2021/05/15 00:21:28;;;;;;;5.50;2.55;;;281.70;2278.40;;;;;;5035416;28;20013;-69
2021/05/15 00:23:54;;;;;;;4.88;2.78;;;281.70;2278.40;;;;;;5043029;28;20068;-67
2021/05/15 00:26:19;;;;;;;4.68;2.60;;;281.70;2278.40;;;;;;5035269;28;20220;-70
2021/05/15 00:28:45;;;;;;;6.32;2.50;;;281.60;2278.40;;;;;;5037619;28;20029;-70
2021/05/15 00:31:11;;;;;;;5.72;2.72;;;281.60;2278.40;;;;;;5054394;28;20021;-68
2021/05/15 00:33:37;;;;;;;6.30;2.70;;;256.90;2252.80;;;;;;5049931;28;20033;-68
2021/05/15 00:36:04;;;;;;;7.10;3.15;;;256.70;2252.80;;;;;;5055076;28;20029;-68
2021/05/15 00:38:29;;;;;;;6.70;2.90;;;256.60;2252.80;;;;;;5055189;28;20399;-67
2021/05/15 00:40:55;;;;;;;5.50;3.00;;;256.50;2252.80;;;;;;5055126;28;20017;-68
2021/05/15 00:43:21;;;;;;;6.97;2.88;;;256.60;2252.80;;;;;;5055333;28;20075;-69
2021/05/15 00:45:48;;;;;;;7.35;2.90;;;256.60;2252.80;;;;;;5054784;28;20021;-69
2021/05/15 00:48:14;;;;;;;7.32;2.97;;;256.60;2252.80;;;;;;5055202;28;20021;-69
2021/05/15 00:50:40;;;;;;;7.20;3.03;;;256.60;2252.80;;;;;;5055146;28;20029;-68
2021/05/15 00:53:06;;;;;;;4.57;3.00;;;256.40;2252.80;;;;;;5046897;28;20395;-66
2021/05/15 00:55:33;;;;;;;4.60;2.97;;;256.40;2252.80;;;;;;5033318;28;20021;-69
2021/05/15 00:57:58;;;;;;;5.57;3.13;;;256.40;2252.80;;;;;;5034045;28;20021;-68
2021/05/15 01:00:25;;;;;;;5.25;3.00;;;256.40;2252.80;;;;;;5034982;28;20025;-67
2021/05/15 01:02:51;;;;;;;8.25;3.40;;;256.20;2252.80;;;;;;5034881;28;20075;-69
2021/05/15 01:05:17;;;;;;;6.15;3.15;;;256.10;2252.80;;;;;;5034552;28;20045;-66
2021/05/15 01:07:45;;;;;;;5.35;2.88;;;256.20;2252.80;;;;;;5034651;28;20104;-66
2021/05/15 01:10:12;;;;;;;5.78;3.30;;;256.20;2252.80;;;;;;5041658;28;20447;-68
2021/05/15 01:12:53;;;;;;;6.60;3.40;;;256.20;2252.80;;;;;;5051118;28;20096;-67
2021/05/15 01:15:20;;;;;;;6.60;3.38;;;256.10;2252.80;;;;;;5040329;28;20021;-66
2021/05/15 01:17:59;;;;;;;5.68;3.17;;;231.30;2252.80;;;;;;5044645;28;20041;-67
2021/05/15 01:20:28;;;;;;;5.80;3.15;;;231.20;2252.80;;;;;;5045523;28;20498;-67
2021/05/15 01:22:57;;;;;;;6.07;3.22;;;231.10;2252.80;;;;;;5033883;28;20025;-67
2021/05/15 01:25:24;;;;;;;5.88;2.85;;;231.10;2252.80;;;;;;5034321;28;20067;-67
2021/05/15 01:27:50;;;;;;;6.35;3.05;;;231.20;2252.80;;;;;;5034233;28;20120;-67
2021/05/15 01:30:17;;;;;;;6.75;3.10;;;231.20;2252.80;;;;;;5034207;28;20022;-67
2021/05/15 01:32:44;;;;;;;7.88;2.90;;;231.30;2252.80;;;;;;5033465;28;20025;-67
2021/05/15 01:35:11;;;;;;;5.95;3.08;;;231.30;2252.80;;;;;;5033577;28;20426;-67
2021/05/15 01:37:37;;;;;;;5.90;3.00;;;231.20;2252.80;;;;;;5033747;28;20037;-67
2021/05/15 01:40:05;;;;;;;6.13;3.55;;;231.10;2252.80;;;;;;5033106;28;20021;-67
2021/05/15 01:42:32;;;;;;;4.93;3.47;;;231.00;2252.80;;;;;;5033917;28;20029;-66
2021/05/15 01:44:59;;;;;;;6.65;3.08;;;230.90;2252.80;;;;;;5034005;28;20025;-66
2021/05/15 01:47:25;;;;;;;36.72;12.55;;;230.90;2252.80;;;;;;5034234;28;20025;-67
2021/05/15 01:49:50;;;;;;;15.00;6.05;;;230.90;2252.80;;;;;;5034093;28;20603;-68
2021/05/15 01:52:16;;;;;;;12.32;4.90;;;230.90;2252.80;;;;;;5033855;28;20033;-69
2021/05/15 01:54:43;;;;;;;11.60;3.45;;;230.90;2252.80;;;;;;5033769;28;20040;-68
2021/05/15 01:57:09;;;;;;;9.38;4.55;;;230.90;2252.80;;;;;;5033681;28;20065;-68
2021/05/15 01:59:36;;;;;;;9.00;4.85;;;230.90;2252.80;;;;;;5033834;28;20014;-68
2021/05/15 02:02:01;;;;;;;8.45;5.10;;;230.90;2252.80;;;;;;5033700;28;20021;-68
2021/05/15 02:04:27;;;;;;;6.15;3.55;;;230.90;2252.80;;;;;;5033776;28;20044;-67
2021/05/15 02:06:56;;;;;;;8.48;4.13;;;230.90;2252.80;;;;;;5033944;28;20033;-67
2021/05/15 02:09:22;;;;;;;10.35;4.43;;;230.90;2252.80;;;;;;5033903;28;20380;-67
2021/05/15 02:11:48;;;;;;;34.53;15.32;;;230.90;2252.80;;;;;;5033924;28;20034;-67
2021/05/15 02:14:13;;;;;;;17.60;6.85;;;230.90;2252.80;;;;;;5033570;28;20454;-67
2021/05/15 02:16:39;;;;;;;10.70;4.95;;;230.90;2252.80;;;;;;5033548;28;20519;-67
2021/05/15 02:19:05;;;;;;;10.40;5.07;;;230.90;2252.80;;;;;;5033675;28;20422;-68
2021/05/15 02:21:30;;;;;;;9.68;4.78;;;230.90;2252.80;;;;;;5033196;28;20087;-68
2021/05/15 02:23:56;;;;;;;7.47;4.13;;;230.80;2252.80;;;;;;5032610;28;20022;-67
2021/05/15 02:26:22;;;;;;;11.07;4.35;;;230.80;2252.80;;;;;;5033358;28;20512;-68
2021/05/15 02:28:47;;;;;;;7.70;4.20;;;230.70;2252.80;;;;;;5033362;28;20038;-67
2021/05/15 02:31:13;;;;;;;8.32;3.92;;;230.80;2252.80;;;;;;5033054;28;20026;-68
2021/05/15 02:33:39;;;;;;;5.80;3.60;;;230.70;2252.80;;;;;;5033254;28;20476;-71
2021/05/15 02:36:05;;;;;;;9.05;4.15;;;230.70;2252.80;;;;;;5033291;28;20030;-67
2021/05/15 02:38:31;;;;;;;8.07;4.07;;;230.70;2252.80;;;;;;5033308;28;20519;-68
2021/05/15 02:40:57;;;;;;;6.40;3.70;;;230.80;2252.80;;;;;;5033406;28;20030;-67
2021/05/15 02:43:22;;;;;;;6.18;3.42;;;230.80;2252.80;;;;;;5033047;28;20045;-67
2021/05/15 02:45:48;;;;;;;7.43;3.45;;;230.80;2252.80;;;;;;5032965;28;20026;-68
2021/05/15 02:48:16;;;;;;;8.80;4.00;;;230.80;2252.80;;;;;;5032968;28;20029;-68
2021/05/15 02:50:47;;;;;;;8.02;3.78;;;230.70;2252.80;;;;;;5033244;28;20049;-68
2021/05/15 02:53:13;;;;;;;7.15;3.70;;;230.60;2252.80;;;;;;5032820;28;20123;-67
2021/05/15 02:55:39;;;;;;;7.38;3.70;;;230.50;2252.80;;;;;;5032769;28;20025;-67
2021/05/15 02:58:05;;;;;;;6.70;3.33;;;230.50;2252.80;;;;;;5031797;28;20029;-67
2021/05/15 03:00:32;;;;;;;4.82;3.20;;;230.40;2252.80;;;;;;5031372;28;20441;-68
2021/05/15 03:02:58;;;;;;;4.60;3.00;;;230.40;2252.80;;;;;;5032781;28;20072;-67
2021/05/15 03:05:26;;;;;;;5.40;2.92;;;230.40;2252.80;;;;;;5031509;28;20053;-67
2021/05/15 03:07:52;;;;;;;5.75;3.03;;;230.50;2252.80;;;;;;5032575;28;20025;-67
2021/05/15 03:10:22;;;;;;;5.47;3.15;;;230.60;2252.80;;;;;;5032704;28;20021;-67
2021/05/15 03:12:48;;;;;;;4.72;3.05;;;230.60;2252.80;;;;;;5032824;28;20025;-68
2021/05/15 03:15:14;;;;;;;5.90;3.05;;;230.70;2252.80;;;;;;5032566;28;20048;-67
2021/05/15 03:17:42;;;;;;;7.50;3.08;;;230.80;2252.80;;;;;;5032323;28;20396;-68
2021/05/15 03:20:11;;;;;;;7.03;2.92;;;230.80;2252.80;;;;;;5032688;28;20018;-67
2021/05/15 03:22:37;;;;;;;5.25;3.00;;;230.80;2252.80;;;;;;5032370;28;20026;-68
2021/05/15 03:25:04;;;;;;;5.85;3.13;;;230.80;2252.80;;;;;;5032838;28;20021;-67
2021/05/15 03:27:30;;;;;;;6.60;3.20;;;230.90;2252.80;;;;;;5032422;28;20103;-68
2021/05/15 03:29:56;;;;;;;5.25;2.80;;;230.90;2252.80;;;;;;5032637;28;20449;-67
2021/05/15 03:32:22;;;;;;;5.10;2.80;;;230.90;2252.80;;;;;;5032329;28;20025;-68
2021/05/15 03:34:47;;;;;;;6.22;2.80;;;231.00;2252.80;;;;;;5031891;28;20021;-67
2021/05/15 03:37:13;;;;;;;5.95;2.60;;;231.00;2252.80;;;;;;5032293;28;20112;-68
2021/05/15 03:39:39;;;;;;;5.15;2.50;;;231.10;2252.80;;;;;;5032194;28;20028;-67
2021/05/15 03:42:05;;;;;;;5.38;2.30;;;231.20;2252.80;;;;;;5032281;28;20606;-66
2021/05/15 03:44:31;;;;;;;8.07;2.65;;;231.30;2252.80;;;;;;5032297;28;20034;-66
2021/05/15 03:46:56;;;;;;;4.57;2.40;;;256.10;2252.80;;;;;;5032037;28;20022;-66
2021/05/15 03:49:22;;;;;;;6.82;2.55;;;256.20;2252.80;;;;;;5032589;28;20108;-66
2021/05/15 03:51:48;;;;;;;7.63;2.40;;;256.40;2252.80;;;;;;5032324;28;20022;-67
2021/05/15 03:54:14;;;;;;;6.80;2.42;;;256.40;2252.80;;;;;;5032137;28;20091;-67
2021/05/15 03:56:39;;;;;;;7.30;3.00;;;256.50;2252.80;;;;;;5031901;28;20025;-66
2021/05/15 03:59:05;;;;;;;7.32;3.30;;;256.70;2252.80;;;;;;5032461;28;20021;-67
2021/05/15 04:01:31;;;;;;;5.13;2.47;;;256.80;2252.80;;;;;;5032070;28;20052;-67
2021/05/15 04:03:57;;;;;;;6.43;2.60;;;256.70;2252.80;;;;;;5031832;28;20034;-67
2021/05/15 04:06:22;;;;;;;7.57;2.80;;;256.80;2252.80;;;;;;5032038;28;20060;-67
2021/05/15 04:08:48;;;;;;;5.00;2.42;;;256.80;2252.80;;;;;;5032242;28;20117;-67
2021/05/15 04:11:14;;;;;;;5.53;2.55;;;256.90;2252.80;;;;;;5032036;28;20407;-67
2021/05/15 04:13:57;;;;;;;6.22;2.53;;;281.60;2278.40;;;;;;5032052;28;20443;-67
2021/05/15 04:16:32;;;;;;;5.65;2.67;;;256.90;2252.80;;;;;;5031665;28;20025;-68
2021/05/15 04:18:58;;;;;;;6.13;2.53;;;256.80;2252.80;;;;;;5032166;28;20029;-67
2021/05/15 04:21:24;;;;;;;7.75;2.88;;;281.60;2278.40;;;;;;5031721;28;20432;-67
2021/05/15 04:23:49;;;;;;;7.05;3.33;;;281.80;2278.40;;;;;;5031985;28;20027;-67
2021/05/15 04:26:16;;;;;;;8.90;4.38;;;281.90;2278.40;;;;;;5032058;28;20506;-67
2021/05/15 04:28:42;;;;;;;8.90;5.82;;;282.00;2278.40;;;;;;5031843;28;20092;-67
2021/05/15 04:31:07;;;;;;;10.23;7.00;;;281.80;2278.40;;;;;;5030820;28;20033;-68
2021/05/15 04:33:36;;;;;;;10.30;6.70;;;281.80;2278.40;;;;;;5032018;28;20029;-68
2021/05/15 04:36:02;;;;;;;7.68;5.43;;;281.80;2278.40;;;;;;5031999;28;20029;-68
2021/05/15 04:38:27;;;;;;;7.40;4.95;;;282.10;2278.40;;;;;;5031950;28;20018;-68
2021/05/15 04:40:53;;;;;;;5.82;3.85;;;282.20;2278.40;;;;;;5031843;28;20503;-68
2021/05/15 04:43:19;;;;;;;6.80;3.70;;;282.40;2278.40;;;;;;5031607;28;20036;-69
2021/05/15 04:45:45;;;;;;;6.43;2.75;;;282.50;2278.40;;;;;;5032382;28;20100;-68
2021/05/15 04:48:11;;;;;;;6.53;2.70;;;282.50;2278.40;;;;;;5035332;28;20483;-69
2021/05/15 04:50:38;;;;;;;4.65;2.80;;;307.20;2304.00;;;;;;5035578;28;20113;-68
2021/05/15 04:53:04;;;;;;;6.80;3.00;;;307.20;2304.00;;;;;;5035207;28;20096;-68
2021/05/15 04:55:30;;;;;;;6.35;3.08;;;307.30;2304.00;;;;;;5034958;28;20029;-69
2021/05/15 04:57:58;;;;;;;7.97;3.53;;;307.30;2304.00;;;;;;5035076;28;20029;-68
2021/05/15 05:00:24;;;;;;;6.57;3.20;;;307.30;2304.00;;;;;;5034802;28;20025;-69
2021/05/15 05:02:51;;;;;;;7.50;3.47;;;307.50;2304.00;;;;;;5035213;28;20056;-70
2021/05/15 05:05:17;;;;;;;6.80;3.58;;;307.80;2304.00;;;;;;5034786;28;20041;-68
2021/05/15 05:07:43;;;;;;;6.07;3.50;;;307.80;2304.00;;;;;;5034857;28;20037;-68
2021/05/15 05:10:09;;;;;;;7.15;3.10;;;332.90;2329.60;;;;;;5051082;28;20033;-68
2021/05/15 05:12:36;;;;;;;7.60;3.15;;;333.20;2329.60;;;;;;5034931;28;20029;-66
2021/05/15 05:15:04;;;;;;;7.75;3.10;;;333.40;2329.60;;;;;;5035703;28;20392;-67
2021/05/15 05:17:30;;;;;;;7.68;3.65;;;358.50;2329.60;;;;;;5031902;28;20021;-72
2021/05/15 05:19:55;;;;;;;7.68;3.20;;;358.80;2329.60;;;;;;5034629;28;20160;-71
2021/05/15 05:22:21;;;;;;;5.70;3.20;;;359.00;2329.60;;;;;;5034264;28;20033;-68
2021/05/15 05:24:47;;;;;;;11.32;3.80;;;384.20;2329.60;;;;;;5034445;28;20022;-67
2021/05/15 05:27:14;;;;;;;7.30;3.30;;;384.70;2329.60;;;;;;5034586;28;20439;-66
2021/05/15 05:29:40;;;;;;;7.45;3.15;;;409.90;2355.20;;;;;;5034461;28;20052;-69
2021/05/15 05:32:09;;;;;;;7.93;3.83;;;435.30;2355.20;;;;;;5034158;28;20035;-69
2021/05/15 05:34:36;;;;;;;5.57;3.40;;;435.90;2355.20;;;;;;5034337;28;20029;-68
2021/05/15 05:37:02;;;;;;;7.68;3.40;;;461.40;2380.80;;;;;;5034511;28;20065;-68
2021/05/15 05:39:28;;;;;;;8.52;3.28;;;486.70;2380.80;;;;;;5033962;28;20010;-68
2021/05/15 05:41:54;;;;;;;6.75;3.10;;;487.10;2380.80;;;;;;5034165;28;20029;-68
2021/05/15 05:44:19;;;;;;;7.03;3.00;;;512.70;2380.80;;;;;;5033967;28;20608;-68
2021/05/15 05:46:45;;;;;;;8.15;3.40;;;538.30;2329.60;;;;;;5034190;28;20100;-68
2021/05/15 05:49:11;;;;;;;9.45;4.47;;;563.30;2201.60;;;;;;5034210;28;20121;-68
2021/05/15 05:51:36;;;;;;;8.23;4.18;;;564.10;2099.20;;;;;;5033723;28;20539;-68
2021/05/15 05:54:03;;;;;;;9.45;4.05;;;589.40;2022.40;;;;;;5033859;28;20030;-68
2021/05/15 05:56:29;;;;;;;9.02;4.03;;;614.80;1920.00;;;;;;5033442;28;20025;-68
2021/05/15 05:58:55;;;;;;;7.45;4.00;;;615.20;1843.20;;;;;;5033910;28;20038;-68
2021/05/15 06:01:21;;;;;;;7.45;3.20;;;615.30;1792.00;;;;;;5033972;28;20037;-68
2021/05/15 06:03:47;;;;;;;7.85;2.97;;;640.20;1715.20;;;;;;5033606;28;20045;-68
2021/05/15 06:06:13;;;;;;;23.85;4.20;;;614.90;1792.00;;;;;;5033785;28;20028;-68
2021/05/15 06:08:39;;;;;;;7.10;2.40;;;640.40;1715.20;;;;;;5033769;28;20425;-68
2021/05/15 06:11:05;;;;;;;6.60;2.80;;;665.60;1689.60;;;;;;5033755;28;20021;-68
2021/05/15 06:13:31;;;;;;;6.15;2.60;;;640.90;1638.40;;;;;;5033621;28;20492;-67
2021/05/15 06:15:57;;;;;;;6.40;3.30;;;640.90;1638.40;;;;;;5033528;28;20033;-67
2021/05/15 06:18:23;;;;;;;9.25;2.83;;;640.90;1612.80;;;;;;5034020;28;20017;-66
2021/05/15 06:20:49;;;;;;;12.25;2.95;;;665.70;1638.40;;;;;;5033843;28;20021;-69
2021/05/15 06:23:18;;;;;;;11.10;2.83;;;666.20;1587.20;;;;;;5033536;28;20029;-68
2021/05/15 06:25:44;;;;;;;9.10;3.15;;;691.20;1561.60;;;;;;5033535;28;20029;-69
2021/05/15 06:28:11;;;;;;;9.80;3.13;;;691.40;1536.00;;;;;;5033263;28;20025;-69
2021/05/15 06:30:38;;;;;;;7.45;2.90;;;691.60;1510.40;;;;;;5033344;28;20037;-69
2021/05/15 06:33:03;;;;;;;9.63;3.10;;;691.60;1536.00;;;;;;5033109;28;20500;-68
2021/05/15 06:35:29;;;;;;;7.80;2.92;;;691.80;1510.40;;;;;;5033281;28;20093;-67
2021/05/15 06:37:55;;;;;;;7.50;2.60;;;692.00;1484.80;;;;;;5032970;28;20554;-68
2021/05/15 06:40:21;;;;;;;10.75;2.70;;;716.90;1484.80;;;;;;5033248;28;20023;-69
2021/05/15 06:42:47;;;;;;;9.73;3.65;;;716.90;1510.40;;;;;;5031983;28;20071;-67
2021/05/15 06:45:13;;;;;;;7.65;3.08;;;691.60;1484.80;;;;;;5033284;28;20049;-67
2021/05/15 06:47:39;;;;;;;9.10;3.22;;;692.10;1484.80;;;;;;5033091;28;20026;-67
2021/05/15 06:50:05;;;;;;;8.45;2.70;;;717.20;1459.20;;;;;;5033119;28;20120;-68
2021/05/15 06:52:32;;;;;;;8.80;3.67;;;717.10;1459.20;;;;;;5033492;28;20060;-68
2021/05/15 06:54:57;;;;;;;7.40;2.58;;;717.10;1484.80;;;;;;5032895;28;20291;-68
2021/05/15 06:57:24;;;;;;;8.40;2.78;;;716.90;1433.60;;;;;;5032817;28;20018;-67
2021/05/15 06:59:50;;;;;;;9.80;3.05;;;692.10;1408.00;;;;;;5032902;28;20036;-67
2021/05/15 07:02:16;;;;;;;9.75;3.40;;;691.70;1459.20;;;;;;5032682;28;20022;-68
2021/05/15 07:04:41;;;;;;;9.10;2.95;;;691.60;1484.80;;;;;;5032601;28;20108;-69
2021/05/15 07:07:07;;;;;;;6.85;3.30;;;691.30;1536.00;;;;;;5032721;28;20074;-67
2021/05/15 07:09:33;;;;;;;6.35;2.90;;;665.60;1561.60;;;;;;5033760;28;20022;-67
2021/05/15 07:11:59;;;;;;;8.60;3.10;;;614.80;1664.00;;;;;;5036794;28;20599;-67
2021/05/15 07:14:24;;;;;;;6.88;3.13;;;614.80;1689.60;;;;;;5032392;28;20029;-69
2021/05/15 07:16:50;;;;;;;7.68;3.10;;;589.70;1715.20;;;;;;5033019;28;20037;-68
2021/05/15 07:19:16;;;;;;;7.88;2.92;;;614.70;1715.20;;;;;;5029488;28;20028;-68
2021/05/15 07:21:42;;;;;;;6.55;2.47;;;614.80;1740.80;;;;;;5032366;28;20476;-68
2021/05/15 07:24:08;;;;;;;11.98;2.83;;;614.50;1740.80;;;;;;5032378;28;20032;-68
2021/05/15 07:26:34;;;;;;;6.32;3.30;;;614.40;1740.80;;;;;;5032472;28;20104;-68
2021/05/15 07:29:00;;;;;;;10.27;3.50;;;614.40;1766.40;;;;;;5032423;28;20025;-68
2021/05/15 07:31:26;;;;;;;9.32;3.60;;;589.60;1792.00;;;;;;5032658;28;20029;-68
2021/05/15 07:33:52;;;;;;;7.13;2.97;;;588.90;1894.40;;;;;;5032286;28;20049;-69
2021/05/15 07:36:18;;;;;;;7.30;3.67;;;589.30;1868.80;;;;;;5031964;28;20052;-69
2021/05/15 07:38:44;;;;;;;7.10;3.70;;;589.50;1843.20;;;;;;5032588;28;20021;-68
2021/05/15 07:41:10;;;;;;;8.52;3.70;;;614.70;1817.60;;;;;;5032445;28;20107;-67
2021/05/15 07:43:37;;;;;;;6.43;3.35;;;589.40;1843.20;;;;;;5032061;28;20022;-67
2021/05/15 07:46:03;;;;;;;8.45;3.55;;;614.50;1817.60;;;;;;5032065;28;20095;-67
2021/05/15 07:48:29;;;;;;;8.32;3.17;;;614.80;1843.20;;;;;;5032024;28;20022;-66
2021/05/15 07:51:00;;;;;;;7.50;3.10;;;615.00;1766.40;;;;;;5032474;28;20033;-68
2021/05/15 07:53:25;;;;;;;;;;;615.30;1766.40;;;;;;5038267;28;20047;-68
2021/05/15 07:55:52;;;;;;;7.85;3.10;;;640.80;1664.00;;;;;;5049911;28;19908;-68
2021/05/15 07:58:18;;;;;;;8.32;3.28;;;666.30;1689.60;;;;;;5049025;28;20074;-70
2021/05/15 08:00:47;;;;;;;8.30;2.92;;;691.40;1612.80;;;;;;5049768;28;20048;-72
2021/05/15 08:03:13;;;;;;;6.82;2.90;;;665.60;1664.00;;;;;;5050199;28;20763;-73
2021/05/15 08:05:40;;;;;;;7.00;2.70;;;665.60;1689.60;;;;;;5047307;28;20029;-68
2021/05/15 08:08:06;;;;;;;6.35;2.60;;;640.30;1689.60;;;;;;5046759;28;20025;-67
2021/05/15 08:10:33;;;;;;;6.85;2.65;;;640.00;1664.00;;;;;;5049227;28;20029;-67
2021/05/15 08:12:59;;;;;;;4.35;2.33;;;640.00;1689.60;;;;;;5048520;28;20023;-67
2021/05/15 08:15:26;;;;;;;5.22;2.38;;;640.60;1664.00;;;;;;5050566;28;20036;-71
2021/05/15 08:17:52;;;;;;;6.07;2.38;;;640.90;1664.00;;;;;;5048130;28;20031;-67
2021/05/15 08:20:18;;;;;;;7.70;2.72;;;640.50;1612.80;;;;;;5050286;28;20247;-67
2021/05/15 08:22:44;;;;;;;6.63;2.53;;;666.30;1612.80;;;;;;5050457;28;20033;-68
2021/05/15 08:25:11;;;;;;;5.97;2.50;;;691.40;1561.60;;;;;;5052470;28;20035;-71
2021/05/15 08:27:39;;;;;;;7.38;2.42;;;666.40;1587.20;;;;;;5052243;28;20044;-67
2021/05/15 08:30:14;;;;;;;7.50;2.30;;;666.30;1561.60;;;;;;5053925;28;20096;-68
2021/05/15 08:32:40;;;;;;;5.82;2.45;;;691.20;1561.60;;;;;;5053418;28;20032;-69
2021/05/15 08:35:06;;;;;;;6.10;2.50;;;691.30;1587.20;;;;;;5050646;28;20017;-68
2021/05/15 08:37:32;;;;;;;7.40;2.75;;;691.20;1561.60;;;;;;5051644;28;20021;-67
2021/05/15 08:39:58;;;;;;;5.20;2.58;;;666.50;1587.20;;;;;;5052034;28;20526;-70
2021/05/15 08:42:25;;;;;;;4.22;2.20;;;666.50;1561.60;;;;;;5053859;28;20025;-74
2021/05/15 08:44:51;;;;;;;5.80;2.30;;;640.90;1536.00;;;;;;5053231;28;20028;-71
2021/05/15 08:47:18;;;;;;;9.38;2.60;;;640.60;1561.60;;;;;;5054468;28;20021;-67
2021/05/15 08:49:46;;;;;;;6.00;2.42;;;665.80;1561.60;;;;;;5040969;28;20105;-67
2021/05/15 08:52:13;;;;;;;5.78;2.10;;;640.70;1536.00;;;;;;5039382;28;20418;-67
2021/05/15 08:54:39;;;;;;;4.05;1.90;;;640.00;1510.40;;;;;;5042855;28;20028;-67
2021/05/15 08:57:06;;;;;;;5.30;2.25;;;640.50;1459.20;;;;;;5034759;28;20013;-74
2021/05/15 08:59:32;;;;;;;6.95;2.55;;;640.70;1510.40;;;;;;5038728;28;20063;-67
2021/05/15 09:01:58;;;;;;;8.35;2.22;;;666.30;1536.00;;;;;;5043362;28;20034;-65
2021/05/15 09:04:24;;;;;;;5.25;2.20;;;666.50;1484.80;;;;;;5045815;28;20105;-67
2021/05/15 09:06:50;;;;;;;6.95;2.00;;;666.30;1510.40;;;;;;5034981;28;20100;-66
2021/05/15 09:09:16;;;;;;;5.40;2.00;;;665.60;1510.40;;;;;;5035010;28;20022;-66
2021/05/15 09:11:42;;;;;;;6.25;2.13;;;665.60;1484.80;;;;;;5034932;28;20026;-67
2021/05/15 09:14:19;;;;;;;4.65;2.00;;;640.60;1484.80;;;;;;5050142;28;20025;-66
2021/05/15 09:16:52;;;;;;;6.55;2.30;;;640.20;1484.80;;;;;;5036349;28;20029;-68
2021/05/15 09:19:27;;;;;;;6.03;2.20;;;640.10;1484.80;;;;;;5049050;28;20048;-66
2021/05/15 09:21:57;;;;;;;4.97;2.03;;;640.20;1484.80;;;;;;5052373;28;20025;-67
2021/05/15 09:24:34;;;;;;;4.90;1.90;;;640.70;1484.80;;;;;;5052518;28;20096;-71
2021/05/15 09:27:04;;;;;;;6.07;1.92;;;665.60;1484.80;;;;;;5052426;28;20120;-67
2021/05/15 09:29:59;;;;;;;4.65;2.00;;;665.60;1459.20;;;;;;5050066;28;20018;-67
2021/05/15 09:32:32;;;;;;;7.50;1.98;;;640.60;1433.60;;;;;;5040986;28;20029;-67
2021/05/15 09:34:59;;;;;;;5.18;2.00;;;640.70;1459.20;;;;;;5050669;28;20048;-66
2021/05/15 09:37:40;;;;;;;6.30;2.10;;;640.30;1484.80;;;;;;5052773;28;20020;-67
2021/05/15 09:40:25;;;;;;;6.43;2.15;;;615.30;1484.80;;;;;;5051840;28;20047;-67
2021/05/15 09:42:58;;;;;;;6.18;2.28;;;615.20;1484.80;;;;;;5052792;28;20029;-68
2021/05/15 09:45:29;;;;;;;4.88;2.60;;;614.80;1510.40;;;;;;5047584;28;20029;-69
2021/05/15 09:47:59;;;;;;;6.07;2.63;;;615.10;1484.80;;;;;;5048973;28;20028;-68
2021/05/15 09:50:31;;;;;;;6.93;2.60;;;615.10;1484.80;;;;;;5050513;28;20017;-67
2021/05/15 09:53:07;;;;;;;9.07;3.30;;;615.20;1484.80;;;;;;5050552;28;20049;-70
2021/05/15 09:55:33;;;;;;;7.65;2.53;;;615.30;1510.40;;;;;;5051328;28;20487;-69
2021/05/15 09:57:59;;;;;;;6.55;2.40;;;640.20;1484.80;;;;;;5047878;28;20115;-69
2021/05/15 10:00:25;;;;;;;6.43;2.20;;;640.70;1433.60;;;;;;5049503;28;20100;-73
2021/05/15 10:02:55;;;;;;;8.30;2.67;;;665.60;1459.20;;;;;;5052677;28;20430;-69
2021/05/15 10:05:21;;;;;;;6.18;2.03;;;640.60;1433.60;;;;;;5050242;28;20135;-69
2021/05/15 10:07:47;;;;;;;5.68;2.00;;;640.80;1408.00;;;;;;5051842;28;20112;-69
2021/05/15 10:10:13;;;;;;;5.13;2.05;;;665.60;1459.20;;;;;;5044610;28;20111;-67
2021/05/15 10:12:39;;;;;;;6.47;2.13;;;640.60;1459.20;;;;;;5035080;28;20455;-68
2021/05/15 10:15:07;;;;;;;8.35;1.85;;;640.70;1382.40;;;;;;5047389;28;20033;-67
2021/05/15 10:17:34;;;;;;;7.03;2.00;;;640.70;1408.00;;;;;;5043967;28;20112;-68
2021/05/15 10:20:09;;;;;;;5.75;1.90;;;665.60;1433.60;;;;;;5049354;28;20075;-67
2021/05/15 10:22:42;;;;;;;4.95;2.00;;;666.10;1408.00;;;;;;5044347;28;20185;-68
2021/05/15 10:25:16;;;;;;;6.82;2.00;;;691.50;1382.40;;;;;;5047430;28;20028;-70
2021/05/15 10:27:42;;;;;;;4.38;1.90;;;691.50;1433.60;;;;;;5051289;28;20025;-67
2021/05/15 10:30:18;;;;;;;6.43;1.77;;;666.40;1433.60;;;;;;5045938;28;20060;-69
2021/05/15 10:32:57;;;;;;;7.43;1.80;;;665.90;1382.40;;;;;;5038915;28;20033;-65
2021/05/15 10:35:31;;;;;;;4.80;2.05;;;665.60;1459.20;;;;;;5045490;28;20029;-67
2021/05/15 10:38:10;;;;;;;10.38;2.20;;;665.70;1459.20;;;;;;5047305;28;20060;-69
2021/05/15 10:40:50;;;;;;;6.25;2.15;;;640.70;1459.20;;;;;;5042219;28;20499;-68
2021/05/15 10:43:30;;;;;;;6.07;2.30;;;665.60;1433.60;;;;;;5049102;28;20033;-68
2021/05/15 10:45:56;;;;;;;5.47;2.00;;;665.60;1433.60;;;;;;5050630;28;20073;-69
2021/05/15 10:48:28;;;;;;;5.25;1.90;;;640.70;1408.00;;;;;;5047425;28;20458;-67
2021/05/15 10:50:56;;;;;;;4.05;1.95;;;640.50;1433.60;;;;;;5050086;28;20045;-70
2021/05/15 10:53:25;;;;;;;6.13;2.00;;;640.00;1459.20;;;;;;5050209;28;20021;-68
2021/05/15 10:56:26;;;;;;;6.40;2.05;;;640.20;1433.60;;;;;;5051169;28;20033;-68
2021/05/15 10:59:04;;;;;;;5.47;2.00;;;640.30;1433.60;;;;;;5047779;28;20491;-69
2021/05/15 11:01:46;;;;;;;7.22;2.10;;;640.30;1433.60;;;;;;5049035;28;20025;-70
2021/05/15 11:04:24;;;;;;;4.70;2.00;;;640.20;1433.60;;;;;;5048672;28;20125;-69
2021/05/15 11:07:00;;;;;;;5.35;2.15;;;640.10;1484.80;;;;;;5050764;28;20040;-67
2021/05/15 11:09:27;;;;;;;4.75;2.20;;;640.20;1433.60;;;;;;5044595;28;20538;-67
2021/05/15 11:12:02;;;;;;;5.47;2.05;;;640.00;1459.20;;;;;;5037403;28;20079;-69
2021/05/15 11:14:31;;;;;;;5.93;2.17;;;615.30;1484.80;;;;;;5037551;28;20017;-67
2021/05/15 11:17:16;;;;;;;8.82;3.60;;;640.10;1510.40;;;;;;5042121;28;20034;-68
2021/05/15 11:19:51;;;;;;;15.30;10.00;;;640.60;1484.80;;;;;;5030561;28;20030;-69
2021/05/15 11:22:18;;;;;;;10.82;5.65;;;640.70;1459.20;;;;;;5032043;28;20030;-66
2021/05/15 11:24:55;;;;;;;5.70;2.47;;;640.50;1510.40;;;;;;5031943;28;20109;-67
2021/05/15 11:27:23;;;;;;;6.43;2.00;;;640.30;1536.00;;;;;;5041504;28;20033;-69
2021/05/15 11:30:06;;;;;;;6.50;2.63;;;615.30;1510.40;;;;;;5033958;28;20029;-67
2021/05/15 11:32:32;;;;;;;11.25;6.40;;;615.00;1510.40;;;;;;5031657;28;20021;-69
2021/05/15 11:35:01;;;;;;;14.25;7.95;;;615.20;1536.00;;;;;;5032605;28;20376;-69
2021/05/15 11:37:26;;;;;;;7.75;2.33;;;615.30;1510.40;;;;;;5032172;28;20116;-70
2021/05/15 11:39:52;;;;;;;6.15;2.20;;;614.90;1484.80;;;;;;5031959;28;20113;-68
2021/05/15 11:42:18;;;;;;;5.85;2.17;;;614.70;1484.80;;;;;;5039539;28;20032;-69
2021/05/15 11:44:51;;;;;;;6.63;3.25;;;614.70;1484.80;;;;;;5036362;28;20061;-69
2021/05/15 11:47:17;;;;;;;5.22;3.28;;;614.90;1484.80;;;;;;5031966;28;20380;-69
2021/05/15 11:49:43;;;;;;;4.97;2.08;;;615.30;1484.80;;;;;;5031531;28;20033;-69
2021/05/15 11:52:10;;;;;;;5.13;2.30;;;640.00;1382.40;;;;;;5029487;28;20017;-68
2021/05/15 11:54:37;;;;;;;4.47;2.05;;;640.00;1408.00;;;;;;5032199;28;20503;-68
2021/05/15 11:57:03;;;;;;;8.00;2.10;;;640.30;1408.00;;;;;;5037165;28;20515;-67
2021/05/15 11:59:31;;;;;;;5.88;2.00;;;640.40;1382.40;;;;;;5045251;28;20152;-67
2021/05/15 12:01:58;;;;;;;10.25;2.53;;;640.20;1408.00;;;;;;5035602;28;20040;-68
2021/05/15 12:04:32;;;;;;;15.05;9.23;;;640.40;1408.00;;;;;;5035708;28;20045;-67
2021/05/15 12:07:07;;;;;;;9.30;2.60;;;640.90;1408.00;;;;;;5047728;28;20040;-70
2021/05/15 12:09:33;;;;;;;7.53;2.38;;;666.10;1408.00;;;;;;5048341;28;20013;-69
2021/05/15 12:12:00;;;;;;;5.00;2.25;;;665.70;1382.40;;;;;;5039202;28;20057;-67
2021/05/15 12:14:28;;;;;;;9.50;4.72;;;665.90;1433.60;;;;;;5035719;28;20025;-71
2021/05/15 12:16:54;;;;;;;6.63;2.08;;;665.70;1433.60;;;;;;5035423;28;20056;-69
2021/05/15 12:19:27;;;;;;;6.97;1.85;;;666.00;1382.40;;;;;;5032216;28;20025;-68